sensor_id;sensor_type;location;lat;lon;timestamp;P1;durP1;ratioP1;P2;durP2;ratioP2
57603;SDS011;43429;47.380;8.484;2022-07-05T00:00:36;4.93;;;1.95;;
57603;SDS011;43429;47.380;8.484;2022-07-05T00:03:02;3.25;;;1.95;;
57603;SDS011;43429;47.380;8.484;2022-07-05T00:05:28;3.83;;;1.85;;
57603;SDS011;43429;47.380;8.484;2022-07-05T00:07:54;4.03;;;2.17;;
57603;SDS011;43429;47.380;8.484;2022-07-05T00:10:21;3.05;;;2.33;;
57603;SDS011;43429;47.380;8.484;2022-07-05T00:12:48;5.03;;;2.40;;
57603;SDS011;43429;47.380;8.484;2022-07-05T00:15:14;6.40;;;2.08;;
57603;SDS011;43429;47.380;8.484;2022-07-05T00:17:40;5.63;;;2.05;;
57603;SDS011;43429;47.380;8.484;2022-07-05T00:20:07;4.50;;;2.08;;
57603;SDS011;43429;47.380;8.484;2022-07-05T00:22:33;2.45;;;1.83;;
57603;SDS011;43429;47.380;8.484;2022-07-05T00:24:59;3.63;;;2.35;;
57603;SDS011;43429;47.380;8.484;2022-07-05T00:27:26;2.20;;;2.00;;
57603;SDS011;43429;47.380;8.484;2022-07-05T00:29:52;6.55;;;2.50;;
57603;SDS011;43429;47.380;8.484;2022-07-05T00:32:19;2.53;;;1.98;;
57603;SDS011;43429;47.380;8.484;2022-07-05T00:34:45;1.77;;;1.65;;
57603;SDS011;43429;47.380;8.484;2022-07-05T00:37:11;5.57;;;1.98;;
57603;SDS011;43429;47.380;8.484;2022-07-05T00:39:37;4.95;;;1.55;;
57603;SDS011;43429;47.380;8.484;2022-07-05T00:42:04;2.35;;;1.75;;
57603;SDS011;43429;47.380;8.484;2022-07-05T00:44:31;3.55;;;1.80;;
57603;SDS011;43429;47.380;8.484;2022-07-05T00:47:01;3.30;;;1.58;;
57603;SDS011;43429;47.380;8.484;2022-07-05T00:49:28;2.58;;;1.80;;
57603;SDS011;43429;47.380;8.484;2022-07-05T00:51:54;2.63;;;1.98;;
57603;SDS011;43429;47.380;8.484;2022-07-05T00:54:21;2.20;;;1.77;;
57603;SDS011;43429;47.380;8.484;2022-07-05T00:56:47;3.15;;;1.73;;
57603;SDS011;43429;47.380;8.484;2022-07-05T00:59:13;2.83;;;1.80;;
57603;SDS011;43429;47.380;8.484;2022-07-05T01:01:40;2.45;;;2.25;;
57603;SDS011;43429;47.380;8.484;2022-07-05T01:04:07;1.75;;;1.65;;
57603;SDS011;43429;47.380;8.484;2022-07-05T01:06:33;3.13;;;2.13;;
57603;SDS011;43429;47.380;8.484;2022-07-05T01:08:59;4.40;;;2.38;;
57603;SDS011;43429;47.380;8.484;2022-07-05T01:11:26;4.78;;;2.00;;
57603;SDS011;43429;47.380;8.484;2022-07-05T01:13:52;2.50;;;2.00;;
57603;SDS011;43429;47.380;8.484;2022-07-05T01:16:18;2.67;;;1.88;;
57603;SDS011;43429;47.380;8.484;2022-07-05T01:18:45;7.75;;;4.82;;
57603;SDS011;43429;47.380;8.484;2022-07-05T01:21:12;16.30;;;13.68;;
57603;SDS011;43429;47.380;8.484;2022-07-05T01:23:41;10.40;;;9.07;;
57603;SDS011;43429;47.380;8.484;2022-07-05T01:26:08;8.20;;;5.90;;
57603;SDS011;43429;47.380;8.484;2022-07-05T01:28:40;3.05;;;2.75;;
57603;SDS011;43429;47.380;8.484;2022-07-05T01:31:07;3.53;;;2.33;;
57603;SDS011;43429;47.380;8.484;2022-07-05T01:33:33;6.28;;;2.40;;
57603;SDS011;43429;47.380;8.484;2022-07-05T01:35:59;4.15;;;2.38;;
57603;SDS011;43429;47.380;8.484;2022-07-05T01:38:26;2.53;;;1.85;;
57603;SDS011;43429;47.380;8.484;2022-07-05T01:40:52;2.28;;;2.00;;
57603;SDS011;43429;47.380;8.484;2022-07-05T01:43:19;2.78;;;2.10;;
57603;SDS011;43429;47.380;8.484;2022-07-05T01:45:46;5.13;;;2.17;;
57603;SDS011;43429;47.380;8.484;2022-07-05T01:48:13;3.53;;;1.83;;
57603;SDS011;43429;47.380;8.484;2022-07-05T01:50:41;6.95;;;2.38;;
57603;SDS011;43429;47.380;8.484;2022-07-05T01:53:11;3.60;;;2.00;;
57603;SDS011;43429;47.380;8.484;2022-07-05T01:55:42;4.32;;;2.45;;
57603;SDS011;43429;47.380;8.484;2022-07-05T01:58:08;4.00;;;3.00;;
57603;SDS011;43429;47.380;8.484;2022-07-05T02:00:41;6.30;;;3.38;;
57603;SDS011;43429;47.380;8.484;2022-07-05T02:03:08;4.80;;;3.60;;
57603;SDS011;43429;47.380;8.484;2022-07-05T02:05:35;6.40;;;3.28;;
57603;SDS011;43429;47.380;8.484;2022-07-05T02:08:01;3.55;;;2.50;;
57603;SDS011;43429;47.380;8.484;2022-07-05T02:10:27;3.38;;;2.17;;
57603;SDS011;43429;47.380;8.484;2022-07-05T02:12:53;2.92;;;1.98;;
57603;SDS011;43429;47.380;8.484;2022-07-05T02:15:20;4.30;;;2.20;;
57603;SDS011;43429;47.380;8.484;2022-07-05T02:17:46;5.93;;;2.35;;
57603;SDS011;43429;47.380;8.484;2022-07-05T02:20:12;3.75;;;2.42;;
57603;SDS011;43429;47.380;8.484;2022-07-05T02:22:38;3.03;;;2.40;;
57603;SDS011;43429;47.380;8.484;2022-07-05T02:25:05;5.32;;;2.45;;
57603;SDS011;43429;47.380;8.484;2022-07-05T02:27:31;2.67;;;2.47;;
57603;SDS011;43429;47.380;8.484;2022-07-05T02:29:58;3.40;;;2.60;;
57603;SDS011;43429;47.380;8.484;2022-07-05T02:32:26;2.50;;;2.25;;
57603;SDS011;43429;47.380;8.484;2022-07-05T02:34:52;4.18;;;2.63;;
57603;SDS011;43429;47.380;8.484;2022-07-05T02:37:18;3.17;;;2.42;;
57603;SDS011;43429;47.380;8.484;2022-07-05T02:39:44;3.78;;;2.83;;
57603;SDS011;43429;47.380;8.484;2022-07-05T02:42:10;5.35;;;3.30;;
57603;SDS011;43429;47.380;8.484;2022-07-05T02:44:36;6.05;;;3.95;;
57603;SDS011;43429;47.380;8.484;2022-07-05T02:47:03;5.65;;;3.50;;
57603;SDS011;43429;47.380;8.484;2022-07-05T02:49:30;3.33;;;2.75;;
57603;SDS011;43429;47.380;8.484;2022-07-05T02:51:56;3.88;;;2.55;;
57603;SDS011;43429;47.380;8.484;2022-07-05T02:54:22;5.35;;;2.65;;
57603;SDS011;43429;47.380;8.484;2022-07-05T02:56:48;3.67;;;2.58;;
57603;SDS011;43429;47.380;8.484;2022-07-05T02:59:14;4.65;;;2.53;;
57603;SDS011;43429;47.380;8.484;2022-07-05T03:01:40;4.18;;;3.13;;
57603;SDS011;43429;47.380;8.484;2022-07-05T03:04:07;3.17;;;2.65;;
57603;SDS011;43429;47.380;8.484;2022-07-05T03:06:35;3.08;;;2.60;;
57603;SDS011;43429;47.380;8.484;2022-07-05T03:09:01;5.88;;;2.88;;
57603;SDS011;43429;47.380;8.484;2022-07-05T03:11:27;3.95;;;2.70;;
57603;SDS011;43429;47.380;8.484;2022-07-05T03:13:54;5.25;;;2.70;;
57603;SDS011;43429;47.380;8.484;2022-07-05T03:16:20;3.40;;;2.60;;
57603;SDS011;43429;47.380;8.484;2022-07-05T03:18:48;3.45;;;2.30;;
57603;SDS011;43429;47.380;8.484;2022-07-05T03:21:14;5.22;;;2.45;;
57603;SDS011;43429;47.380;8.484;2022-07-05T03:23:41;5.47;;;2.63;;
57603;SDS011;43429;47.380;8.484;2022-07-05T03:26:07;5.30;;;2.92;;
57603;SDS011;43429;47.380;8.484;2022-07-05T03:28:33;2.83;;;2.60;;
57603;SDS011;43429;47.380;8.484;2022-07-05T03:31:00;3.08;;;1.98;;
57603;SDS011;43429;47.380;8.484;2022-07-05T03:33:26;3.25;;;2.95;;
57603;SDS011;43429;47.380;8.484;2022-07-05T03:35:52;3.58;;;2.63;;
57603;SDS011;43429;47.380;8.484;2022-07-05T03:38:18;4.32;;;3.15;;
57603;SDS011;43429;47.380;8.484;2022-07-05T03:40:45;4.50;;;3.63;;
57603;SDS011;43429;47.380;8.484;2022-07-05T03:43:11;6.90;;;4.88;;
57603;SDS011;43429;47.380;8.484;2022-07-05T03:45:37;5.55;;;4.38;;
57603;SDS011;43429;47.380;8.484;2022-07-05T03:48:04;4.63;;;3.92;;
57603;SDS011;43429;47.380;8.484;2022-07-05T03:50:30;5.28;;;3.80;;
57603;SDS011;43429;47.380;8.484;2022-07-05T03:52:56;5.50;;;3.50;;
57603;SDS011;43429;47.380;8.484;2022-07-05T03:55:22;4.43;;;3.45;;
57603;SDS011;43429;47.380;8.484;2022-07-05T03:57:49;5.47;;;2.42;;
57603;SDS011;43429;47.380;8.484;2022-07-05T04:00:16;3.58;;;2.35;;
57603;SDS011;43429;47.380;8.484;2022-07-05T04:02:42;4.28;;;2.53;;
57603;SDS011;43429;47.380;8.484;2022-07-05T04:05:08;4.22;;;2.88;;
57603;SDS011;43429;47.380;8.484;2022-07-05T04:07:36;8.68;;;2.90;;
57603;SDS011;43429;47.380;8.484;2022-07-05T04:10:12;4.70;;;2.70;;
57603;SDS011;43429;47.380;8.484;2022-07-05T04:12:38;3.05;;;2.85;;
57603;SDS011;43429;47.380;8.484;2022-07-05T04:15:06;3.35;;;2.70;;
57603;SDS011;43429;47.380;8.484;2022-07-05T04:17:33;4.38;;;2.33;;
57603;SDS011;43429;47.380;8.484;2022-07-05T04:19:59;4.45;;;3.20;;
57603;SDS011;43429;47.380;8.484;2022-07-05T04:22:25;6.60;;;3.47;;
57603;SDS011;43429;47.380;8.484;2022-07-05T04:24:51;8.98;;;3.55;;
57603;SDS011;43429;47.380;8.484;2022-07-05T04:27:38;3.03;;;2.55;;
57603;SDS011;43429;47.380;8.484;2022-07-05T04:30:06;6.55;;;3.22;;
57603;SDS011;43429;47.380;8.484;2022-07-05T04:32:34;6.90;;;3.35;;
57603;SDS011;43429;47.380;8.484;2022-07-05T04:35:00;5.50;;;2.97;;
57603;SDS011;43429;47.380;8.484;2022-07-05T04:37:26;3.47;;;3.17;;
57603;SDS011;43429;47.380;8.484;2022-07-05T04:39:53;5.78;;;3.65;;
57603;SDS011;43429;47.380;8.484;2022-07-05T04:42:20;5.05;;;3.53;;
57603;SDS011;43429;47.380;8.484;2022-07-05T04:44:47;7.00;;;3.30;;
57603;SDS011;43429;47.380;8.484;2022-07-05T04:47:14;5.65;;;3.38;;
57603;SDS011;43429;47.380;8.484;2022-07-05T04:49:40;2.85;;;2.50;;
57603;SDS011;43429;47.380;8.484;2022-07-05T04:52:06;3.88;;;3.40;;
57603;SDS011;43429;47.380;8.484;2022-07-05T04:54:33;3.88;;;3.10;;
57603;SDS011;43429;47.380;8.484;2022-07-05T04:57:02;3.25;;;2.80;;
57603;SDS011;43429;47.380;8.484;2022-07-05T04:59:29;3.00;;;2.45;;
57603;SDS011;43429;47.380;8.484;2022-07-05T05:01:57;3.72;;;3.30;;
57603;SDS011;43429;47.380;8.484;2022-07-05T05:04:24;6.75;;;3.20;;
57603;SDS011;43429;47.380;8.484;2022-07-05T05:06:50;3.47;;;2.88;;
57603;SDS011;43429;47.380;8.484;2022-07-05T05:09:16;4.63;;;4.22;;
57603;SDS011;43429;47.380;8.484;2022-07-05T05:11:42;6.68;;;3.92;;
57603;SDS011;43429;47.380;8.484;2022-07-05T05:14:08;3.08;;;2.80;;
57603;SDS011;43429;47.380;8.484;2022-07-05T05:16:35;4.10;;;2.75;;
57603;SDS011;43429;47.380;8.484;2022-07-05T05:19:01;7.05;;;2.97;;
57603;SDS011;43429;47.380;8.484;2022-07-05T05:21:28;8.13;;;3.15;;
57603;SDS011;43429;47.380;8.484;2022-07-05T05:23:54;3.85;;;3.20;;
57603;SDS011;43429;47.380;8.484;2022-07-05T05:26:20;5.00;;;3.28;;
57603;SDS011;43429;47.380;8.484;2022-07-05T05:28:46;3.47;;;3.15;;
57603;SDS011;43429;47.380;8.484;2022-07-05T05:31:12;8.55;;;3.25;;
57603;SDS011;43429;47.380;8.484;2022-07-05T05:33:39;4.35;;;3.20;;
57603;SDS011;43429;47.380;8.484;2022-07-05T05:36:05;5.32;;;3.20;;
57603;SDS011;43429;47.380;8.484;2022-07-05T05:38:33;6.82;;;4.28;;
57603;SDS011;43429;47.380;8.484;2022-07-05T05:40:59;4.63;;;2.85;;
57603;SDS011;43429;47.380;8.484;2022-07-05T05:43:25;5.63;;;3.22;;
57603;SDS011;43429;47.380;8.484;2022-07-05T05:45:51;6.03;;;3.63;;
57603;SDS011;43429;47.380;8.484;2022-07-05T05:48:19;5.78;;;3.10;;
57603;SDS011;43429;47.380;8.484;2022-07-05T05:50:46;6.95;;;2.92;;
57603;SDS011;43429;47.380;8.484;2022-07-05T05:53:13;6.03;;;4.10;;
57603;SDS011;43429;47.380;8.484;2022-07-05T05:55:40;5.75;;;3.17;;
57603;SDS011;43429;47.380;8.484;2022-07-05T05:58:10;5.97;;;2.70;;
57603;SDS011;43429;47.380;8.484;2022-07-05T06:00:37;6.50;;;3.22;;
57603;SDS011;43429;47.380;8.484;2022-07-05T06:03:03;8.00;;;3.22;;
57603;SDS011;43429;47.380;8.484;2022-07-05T06:05:29;5.60;;;3.25;;
57603;SDS011;43429;47.380;8.484;2022-07-05T06:07:56;6.90;;;3.67;;
57603;SDS011;43429;47.380;8.484;2022-07-05T06:10:23;4.25;;;3.20;;
57603;SDS011;43429;47.380;8.484;2022-07-05T06:12:52;5.43;;;3.55;;
57603;SDS011;43429;47.380;8.484;2022-07-05T06:15:19;4.35;;;2.72;;
57603;SDS011;43429;47.380;8.484;2022-07-05T06:17:46;5.47;;;3.90;;
57603;SDS011;43429;47.380;8.484;2022-07-05T06:20:13;3.40;;;3.05;;
57603;SDS011;43429;47.380;8.484;2022-07-05T06:22:41;5.60;;;3.38;;
57603;SDS011;43429;47.380;8.484;2022-07-05T06:25:08;5.22;;;3.42;;
57603;SDS011;43429;47.380;8.484;2022-07-05T06:27:38;4.55;;;3.03;;
57603;SDS011;43429;47.380;8.484;2022-07-05T06:30:07;6.22;;;3.50;;
57603;SDS011;43429;47.380;8.484;2022-07-05T06:32:34;4.28;;;3.40;;
57603;SDS011;43429;47.380;8.484;2022-07-05T06:35:00;4.25;;;2.88;;
57603;SDS011;43429;47.380;8.484;2022-07-05T06:37:27;5.45;;;3.47;;
57603;SDS011;43429;47.380;8.484;2022-07-05T06:39:53;11.48;;;3.83;;
57603;SDS011;43429;47.380;8.484;2022-07-05T06:42:19;7.25;;;4.07;;
57603;SDS011;43429;47.380;8.484;2022-07-05T06:44:45;6.15;;;3.15;;
57603;SDS011;43429;47.380;8.484;2022-07-05T06:47:12;13.95;;;3.90;;
57603;SDS011;43429;47.380;8.484;2022-07-05T06:49:41;6.95;;;3.42;;
57603;SDS011;43429;47.380;8.484;2022-07-05T06:52:07;10.90;;;4.05;;
57603;SDS011;43429;47.380;8.484;2022-07-05T06:54:33;6.90;;;3.35;;
57603;SDS011;43429;47.380;8.484;2022-07-05T06:56:59;8.57;;;3.65;;
57603;SDS011;43429;47.380;8.484;2022-07-05T06:59:25;3.40;;;3.05;;
57603;SDS011;43429;47.380;8.484;2022-07-05T07:01:51;5.38;;;3.15;;
57603;SDS011;43429;47.380;8.484;2022-07-05T07:04:18;5.07;;;2.70;;
57603;SDS011;43429;47.380;8.484;2022-07-05T07:06:45;3.53;;;2.70;;
57603;SDS011;43429;47.380;8.484;2022-07-05T07:09:11;3.60;;;2.75;;
57603;SDS011;43429;47.380;8.484;2022-07-05T07:11:43;4.30;;;2.55;;
57603;SDS011;43429;47.380;8.484;2022-07-05T07:14:10;3.53;;;2.53;;
57603;SDS011;43429;47.380;8.484;2022-07-05T07:16:36;4.78;;;1.98;;
57603;SDS011;43429;47.380;8.484;2022-07-05T07:19:02;4.82;;;2.75;;
57603;SDS011;43429;47.380;8.484;2022-07-05T07:21:29;3.05;;;1.92;;
57603;SDS011;43429;47.380;8.484;2022-07-05T07:23:55;5.22;;;2.33;;
57603;SDS011;43429;47.380;8.484;2022-07-05T07:26:21;3.83;;;2.22;;
57603;SDS011;43429;47.380;8.484;2022-07-05T07:28:47;4.70;;;2.70;;
57603;SDS011;43429;47.380;8.484;2022-07-05T07:31:14;5.82;;;2.10;;
57603;SDS011;43429;47.380;8.484;2022-07-05T07:33:40;3.53;;;2.00;;
57603;SDS011;43429;47.380;8.484;2022-07-05T07:36:06;3.47;;;2.63;;
57603;SDS011;43429;47.380;8.484;2022-07-05T07:38:33;3.05;;;2.00;;
57603;SDS011;43429;47.380;8.484;2022-07-05T07:41:00;4.05;;;2.40;;
57603;SDS011;43429;47.380;8.484;2022-07-05T07:43:27;2.83;;;1.80;;
57603;SDS011;43429;47.380;8.484;2022-07-05T07:45:53;2.55;;;1.77;;
57603;SDS011;43429;47.380;8.484;2022-07-05T07:48:20;5.00;;;2.00;;
57603;SDS011;43429;47.380;8.484;2022-07-05T07:50:46;3.40;;;2.35;;
57603;SDS011;43429;47.380;8.484;2022-07-05T07:53:12;4.85;;;2.47;;
57603;SDS011;43429;47.380;8.484;2022-07-05T07:55:39;3.25;;;2.17;;
57603;SDS011;43429;47.380;8.484;2022-07-05T07:58:05;3.70;;;2.00;;
57603;SDS011;43429;47.380;8.484;2022-07-05T08:00:32;2.95;;;1.90;;
57603;SDS011;43429;47.380;8.484;2022-07-05T08:02:59;2.97;;;2.20;;
57603;SDS011;43429;47.380;8.484;2022-07-05T08:05:25;2.33;;;2.13;;
57603;SDS011;43429;47.380;8.484;2022-07-05T08:07:51;2.95;;;1.98;;
57603;SDS011;43429;47.380;8.484;2022-07-05T08:10:17;4.32;;;2.22;;
57603;SDS011;43429;47.380;8.484;2022-07-05T08:12:44;3.42;;;2.08;;
57603;SDS011;43429;47.380;8.484;2022-07-05T08:15:10;2.70;;;1.90;;
57603;SDS011;43429;47.380;8.484;2022-07-05T08:17:36;4.95;;;2.47;;
57603;SDS011;43429;47.380;8.484;2022-07-05T08:20:23;3.92;;;2.17;;
57603;SDS011;43429;47.380;8.484;2022-07-05T08:23:08;3.25;;;1.85;;
57603;SDS011;43429;47.380;8.484;2022-07-05T08:25:34;2.58;;;1.80;;
57603;SDS011;43429;47.380;8.484;2022-07-05T08:28:01;3.40;;;2.47;;
57603;SDS011;43429;47.380;8.484;2022-07-05T08:30:27;5.05;;;2.30;;
57603;SDS011;43429;47.380;8.484;2022-07-05T08:32:53;2.65;;;1.50;;
57603;SDS011;43429;47.380;8.484;2022-07-05T08:35:19;3.13;;;2.17;;
57603;SDS011;43429;47.380;8.484;2022-07-05T08:37:45;3.20;;;1.80;;
57603;SDS011;43429;47.380;8.484;2022-07-05T08:40:12;3.83;;;1.90;;
57603;SDS011;43429;47.380;8.484;2022-07-05T08:42:40;4.57;;;1.90;;
57603;SDS011;43429;47.380;8.484;2022-07-05T08:45:08;3.10;;;2.00;;
57603;SDS011;43429;47.380;8.484;2022-07-05T08:47:37;2.97;;;1.70;;
57603;SDS011;43429;47.380;8.484;2022-07-05T08:50:04;2.10;;;1.85;;
57603;SDS011;43429;47.380;8.484;2022-07-05T08:52:31;5.97;;;2.55;;
57603;SDS011;43429;47.380;8.484;2022-07-05T08:54:58;3.63;;;2.15;;
57603;SDS011;43429;47.380;8.484;2022-07-05T08:57:25;7.47;;;2.17;;
57603;SDS011;43429;47.380;8.484;2022-07-05T08:59:51;2.88;;;2.08;;
57603;SDS011;43429;47.380;8.484;2022-07-05T09:02:18;4.28;;;1.80;;
57603;SDS011;43429;47.380;8.484;2022-07-05T09:04:47;5.68;;;1.80;;
57603;SDS011;43429;47.380;8.484;2022-07-05T09:07:15;3.17;;;1.70;;
57603;SDS011;43429;47.380;8.484;2022-07-05T09:09:42;2.20;;;1.70;;
57603;SDS011;43429;47.380;8.484;2022-07-05T09:12:12;5.35;;;1.80;;
57603;SDS011;43429;47.380;8.484;2022-07-05T09:14:40;2.92;;;1.60;;
57603;SDS011;43429;47.380;8.484;2022-07-05T09:17:06;6.28;;;2.20;;
57603;SDS011;43429;47.380;8.484;2022-07-05T09:19:32;3.20;;;1.70;;
57603;SDS011;43429;47.380;8.484;2022-07-05T09:22:05;3.17;;;1.73;;
57603;SDS011;43429;47.380;8.484;2022-07-05T09:24:31;3.42;;;1.40;;
57603;SDS011;43429;47.380;8.484;2022-07-05T09:27:03;6.00;;;1.65;;
57603;SDS011;43429;47.380;8.484;2022-07-05T09:29:30;3.70;;;1.70;;
57603;SDS011;43429;47.380;8.484;2022-07-05T09:31:56;2.85;;;1.73;;
57603;SDS011;43429;47.380;8.484;2022-07-05T09:34:22;2.28;;;1.60;;
57603;SDS011;43429;47.380;8.484;2022-07-05T09:36:49;4.72;;;2.17;;
57603;SDS011;43429;47.380;8.484;2022-07-05T09:39:17;6.53;;;2.00;;
57603;SDS011;43429;47.380;8.484;2022-07-05T09:41:44;6.32;;;1.90;;
57603;SDS011;43429;47.380;8.484;2022-07-05T09:44:10;2.17;;;1.60;;
57603;SDS011;43429;47.380;8.484;2022-07-05T09:46:36;4.38;;;1.90;;
57603;SDS011;43429;47.380;8.484;2022-07-05T09:49:03;2.75;;;1.73;;
57603;SDS011;43429;47.380;8.484;2022-07-05T09:54:12;3.88;;;1.75;;
57603;SDS011;43429;47.380;8.484;2022-07-05T09:56:46;1.60;;;1.50;;
57603;SDS011;43429;47.380;8.484;2022-07-05T09:59:13;3.95;;;1.60;;
57603;SDS011;43429;47.380;8.484;2022-07-05T10:01:41;2.92;;;1.05;;
57603;SDS011;43429;47.380;8.484;2022-07-05T10:04:07;2.03;;;1.52;;
57603;SDS011;43429;47.380;8.484;2022-07-05T10:06:33;3.60;;;1.40;;
57603;SDS011;43429;47.380;8.484;2022-07-05T10:09:00;2.22;;;1.10;;
57603;SDS011;43429;47.380;8.484;2022-07-05T10:11:27;4.32;;;1.23;;
57603;SDS011;43429;47.380;8.484;2022-07-05T10:13:53;4.07;;;1.38;;
57603;SDS011;43429;47.380;8.484;2022-07-05T10:16:21;1.45;;;1.20;;
57603;SDS011;43429;47.380;8.484;2022-07-05T10:18:50;6.50;;;1.33;;
57603;SDS011;43429;47.380;8.484;2022-07-05T10:21:18;1.10;;;0.80;;
57603;SDS011;43429;47.380;8.484;2022-07-05T10:23:45;3.78;;;1.10;;
57603;SDS011;43429;47.380;8.484;2022-07-05T10:26:13;1.98;;;0.90;;
57603;SDS011;43429;47.380;8.484;2022-07-05T10:28:44;1.20;;;0.85;;
57603;SDS011;43429;47.380;8.484;2022-07-05T10:31:13;4.30;;;1.23;;
57603;SDS011;43429;47.380;8.484;2022-07-05T10:33:40;6.05;;;0.90;;
57603;SDS011;43429;47.380;8.484;2022-07-05T10:36:06;2.03;;;1.00;;
57603;SDS011;43429;47.380;8.484;2022-07-05T10:38:36;1.63;;;0.73;;
57603;SDS011;43429;47.380;8.484;2022-07-05T10:41:04;2.08;;;0.77;;
57603;SDS011;43429;47.380;8.484;2022-07-05T10:43:34;4.95;;;1.73;;
57603;SDS011;43429;47.380;8.484;2022-07-05T10:46:01;1.60;;;0.82;;
57603;SDS011;43429;47.380;8.484;2022-07-05T10:48:28;2.47;;;0.90;;
57603;SDS011;43429;47.380;8.484;2022-07-05T10:50:55;2.08;;;1.00;;
57603;SDS011;43429;47.380;8.484;2022-07-05T10:53:23;4.75;;;1.20;;
57603;SDS011;43429;47.380;8.484;2022-07-05T10:55:55;5.70;;;1.13;;
57603;SDS011;43429;47.380;8.484;2022-07-05T10:58:23;16.33;;;1.30;;
57603;SDS011;43429;47.380;8.484;2022-07-05T11:07:00;1.67;;;0.93;;
57603;SDS011;43429;47.380;8.484;2022-07-05T11:09:27;2.35;;;0.80;;
57603;SDS011;43429;47.380;8.484;2022-07-05T11:12:04;2.90;;;0.88;;
57603;SDS011;43429;47.380;8.484;2022-07-05T11:17:22;2.97;;;0.90;;
57603;SDS011;43429;47.380;8.484;2022-07-05T11:20:02;1.73;;;0.90;;
57603;SDS011;43429;47.380;8.484;2022-07-05T11:22:37;2.80;;;0.98;;
57603;SDS011;43429;47.380;8.484;2022-07-05T11:25:07;5.03;;;1.38;;
57603;SDS011;43429;47.380;8.484;2022-07-05T11:27:35;1.73;;;0.98;;
57603;SDS011;43429;47.380;8.484;2022-07-05T11:30:01;2.72;;;1.27;;
57603;SDS011;43429;47.380;8.484;2022-07-05T11:32:34;1.50;;;0.90;;
57603;SDS011;43429;47.380;8.484;2022-07-05T11:37:57;3.35;;;1.30;;
57603;SDS011;43429;47.380;8.484;2022-07-05T11:40:29;2.03;;;1.20;;
57603;SDS011;43429;47.380;8.484;2022-07-05T11:42:57;6.43;;;1.50;;
57603;SDS011;43429;47.380;8.484;2022-07-05T11:45:23;1.30;;;0.93;;
57603;SDS011;43429;47.380;8.484;2022-07-05T11:47:50;2.00;;;1.25;;
57603;SDS011;43429;47.380;8.484;2022-07-05T11:50:25;3.15;;;1.38;;
57603;SDS011;43429;47.380;8.484;2022-07-05T11:52:57;3.30;;;0.90;;
57603;SDS011;43429;47.380;8.484;2022-07-05T11:55:25;1.63;;;1.02;;
57603;SDS011;43429;47.380;8.484;2022-07-05T11:57:53;2.28;;;1.20;;
57603;SDS011;43429;47.380;8.484;2022-07-05T12:00:30;1.48;;;0.85;;
57603;SDS011;43429;47.380;8.484;2022-07-05T12:02:57;1.55;;;1.20;;
57603;SDS011;43429;47.380;8.484;2022-07-05T12:05:29;5.35;;;1.40;;
57603;SDS011;43429;47.380;8.484;2022-07-05T12:07:57;2.83;;;1.13;;
57603;SDS011;43429;47.380;8.484;2022-07-05T12:10:23;2.45;;;1.17;;
57603;SDS011;43429;47.380;8.484;2022-07-05T12:13:08;1.48;;;1.33;;
57603;SDS011;43429;47.380;8.484;2022-07-05T12:15:35;2.75;;;1.63;;
57603;SDS011;43429;47.380;8.484;2022-07-05T12:18:03;1.30;;;1.02;;
57603;SDS011;43429;47.380;8.484;2022-07-05T12:20:31;2.88;;;1.05;;
57603;SDS011;43429;47.380;8.484;2022-07-05T12:22:58;1.23;;;1.02;;
57603;SDS011;43429;47.380;8.484;2022-07-05T12:25:26;2.65;;;1.17;;
57603;SDS011;43429;47.380;8.484;2022-07-05T12:27:54;1.90;;;1.20;;
57603;SDS011;43429;47.380;8.484;2022-07-05T12:30:21;4.05;;;1.40;;
57603;SDS011;43429;47.380;8.484;2022-07-05T12:32:58;3.72;;;1.08;;
57603;SDS011;43429;47.380;8.484;2022-07-05T12:35:26;1.15;;;1.05;;
57603;SDS011;43429;47.380;8.484;2022-07-05T12:38:01;2.25;;;1.40;;
57603;SDS011;43429;47.380;8.484;2022-07-05T12:40:28;1.80;;;1.23;;
57603;SDS011;43429;47.380;8.484;2022-07-05T12:43:01;1.10;;;1.00;;
57603;SDS011;43429;47.380;8.484;2022-07-05T12:45:31;2.20;;;1.45;;
57603;SDS011;43429;47.380;8.484;2022-07-05T12:47:59;2.47;;;1.38;;
57603;SDS011;43429;47.380;8.484;2022-07-05T12:50:28;4.40;;;1.20;;
57603;SDS011;43429;47.380;8.484;2022-07-05T12:52:57;4.07;;;1.13;;
57603;SDS011;43429;47.380;8.484;2022-07-05T12:55:24;3.33;;;1.40;;
57603;SDS011;43429;47.380;8.484;2022-07-05T12:58:16;1.35;;;1.02;;
57603;SDS011;43429;47.380;8.484;2022-07-05T13:00:42;2.10;;;0.93;;
57603;SDS011;43429;47.380;8.484;2022-07-05T13:03:08;2.42;;;1.20;;
57603;SDS011;43429;47.380;8.484;2022-07-05T13:05:34;2.95;;;1.02;;
57603;SDS011;43429;47.380;8.484;2022-07-05T13:08:02;1.33;;;1.23;;
57603;SDS011;43429;47.380;8.484;2022-07-05T13:10:29;2.28;;;1.58;;
57603;SDS011;43429;47.380;8.484;2022-07-05T13:12:57;1.63;;;0.90;;
57603;SDS011;43429;47.380;8.484;2022-07-05T13:15:24;1.40;;;1.00;;
57603;SDS011;43429;47.380;8.484;2022-07-05T13:17:50;2.63;;;0.98;;
57603;SDS011;43429;47.380;8.484;2022-07-05T13:20:17;2.42;;;1.02;;
57603;SDS011;43429;47.380;8.484;2022-07-05T13:22:48;1.75;;;1.42;;
57603;SDS011;43429;47.380;8.484;2022-07-05T13:25:15;1.50;;;0.98;;
57603;SDS011;43429;47.380;8.484;2022-07-05T13:27:41;2.05;;;1.55;;
57603;SDS011;43429;47.380;8.484;2022-07-05T13:30:08;2.67;;;0.90;;
57603;SDS011;43429;47.380;8.484;2022-07-05T13:32:35;1.85;;;1.27;;
57603;SDS011;43429;47.380;8.484;2022-07-05T13:35:01;2.08;;;0.90;;
57603;SDS011;43429;47.380;8.484;2022-07-05T13:37:27;2.10;;;1.17;;
57603;SDS011;43429;47.380;8.484;2022-07-05T13:39:53;5.68;;;1.40;;
57603;SDS011;43429;47.380;8.484;2022-07-05T13:42:20;3.08;;;1.02;;
57603;SDS011;43429;47.380;8.484;2022-07-05T13:44:46;1.73;;;1.10;;
57603;SDS011;43429;47.380;8.484;2022-07-05T13:47:12;3.20;;;1.30;;
57603;SDS011;43429;47.380;8.484;2022-07-05T13:49:39;1.77;;;1.17;;
57603;SDS011;43429;47.380;8.484;2022-07-05T13:52:06;3.13;;;1.45;;
57603;SDS011;43429;47.380;8.484;2022-07-05T13:54:32;1.95;;;1.20;;
57603;SDS011;43429;47.380;8.484;2022-07-05T13:56:58;4.80;;;1.45;;
57603;SDS011;43429;47.380;8.484;2022-07-05T13:59:25;6.22;;;1.10;;
57603;SDS011;43429;47.380;8.484;2022-07-05T14:01:51;6.20;;;1.20;;
57603;SDS011;43429;47.380;8.484;2022-07-05T14:04:17;1.90;;;1.65;;
57603;SDS011;43429;47.380;8.484;2022-07-05T14:06:43;5.57;;;1.48;;
57603;SDS011;43429;47.380;8.484;2022-07-05T14:09:11;4.78;;;1.70;;
57603;SDS011;43429;47.380;8.484;2022-07-05T14:11:37;3.63;;;0.90;;
57603;SDS011;43429;47.380;8.484;2022-07-05T14:14:03;4.35;;;1.13;;
57603;SDS011;43429;47.380;8.484;2022-07-05T14:16:30;4.82;;;1.38;;
57603;SDS011;43429;47.380;8.484;2022-07-05T14:18:59;0.88;;;0.88;;
57603;SDS011;43429;47.380;8.484;2022-07-05T14:21:25;4.28;;;1.13;;
57603;SDS011;43429;47.380;8.484;2022-07-05T14:23:51;3.58;;;1.17;;
57603;SDS011;43429;47.380;8.484;2022-07-05T14:26:18;2.58;;;1.45;;
57603;SDS011;43429;47.380;8.484;2022-07-05T14:28:44;4.22;;;1.38;;
57603;SDS011;43429;47.380;8.484;2022-07-05T14:31:10;2.58;;;1.42;;
57603;SDS011;43429;47.380;8.484;2022-07-05T14:33:43;2.17;;;1.23;;
57603;SDS011;43429;47.380;8.484;2022-07-05T14:36:11;1.67;;;1.37;;
57603;SDS011;43429;47.380;8.484;2022-07-05T14:38:37;2.28;;;1.20;;
57603;SDS011;43429;47.380;8.484;2022-07-05T14:41:03;6.60;;;1.50;;
57603;SDS011;43429;47.380;8.484;2022-07-05T14:43:29;4.35;;;1.10;;
57603;SDS011;43429;47.380;8.484;2022-07-05T14:45:55;4.18;;;0.98;;
57603;SDS011;43429;47.380;8.484;2022-07-05T14:48:22;3.88;;;1.00;;
57603;SDS011;43429;47.380;8.484;2022-07-05T14:50:49;1.65;;;1.35;;
57603;SDS011;43429;47.380;8.484;2022-07-05T14:53:15;1.20;;;1.10;;
57603;SDS011;43429;47.380;8.484;2022-07-05T14:55:42;2.30;;;1.00;;
57603;SDS011;43429;47.380;8.484;2022-07-05T14:58:08;1.48;;;1.08;;
57603;SDS011;43429;47.380;8.484;2022-07-05T15:00:36;2.30;;;1.20;;
57603;SDS011;43429;47.380;8.484;2022-07-05T15:03:02;2.53;;;1.20;;